Time;durP1;ratioP1;P1;durP2;ratioP2;P2;SDS_P1;SDS_P2;PMS_P1;PMS_P2;Temp;Humidity;BMP_temperature;BMP_pressure;BME280_temperature;BME280_humidity;BME280_pressure;Samples;Min_cycle;Max_cycle;Signal;HPM_P1;HPM_P2
2021/09/24 00:02:18;;;;;;;;;;;;;;;9.36;76.33;99077.91;5031846;28;19929;-75
2021/09/24 00:04:44;;;;;;;;;;;;;;;9.32;76.66;99070.19;5038236;28;20396;-76
2021/09/24 00:07:09;;;;;;;;;;;;;;;9.33;76.64;99071.91;5035650;28;19962;-76
2021/09/24 00:09:35;;;;;;;;;;;;;;;9.31;76.39;99072.78;5032975;28;19928;-76
2021/09/24 00:12:01;;;;;;;;;;;;;;;9.31;76.76;99065.88;5031229;28;19921;-77
2021/09/24 00:14:26;;;;;;;;;;;;;;;9.36;76.78;99062.34;5046475;28;19920;-76
2021/09/24 00:16:52;;;;;;;;;;;;;;;9.40;77.00;99069.19;5031703;28;20010;-77
2021/09/24 00:19:17;;;;;;;;;;;;;;;9.45;76.96;99069.97;5031858;28;19921;-77
2021/09/24 00:21:43;;;;;;;;;;;;;;;9.51;77.15;99064.69;5031599;28;19947;-77
2021/09/24 00:24:08;;;;;;;;;;;;;;;9.54;76.40;99058.56;5014065;28;20482;-76
2021/09/24 00:26:34;;;;;;;;;;;;;;;9.50;76.34;99055.19;5030634;28;19975;-75
2021/09/24 00:29:00;;;;;;;;;;;;;;;9.50;76.76;99060.38;5031840;28;19925;-77
2021/09/24 00:31:26;;;;;;;;;;;;;;;9.53;76.67;99065.53;5033949;28;19975;-75
2021/09/24 00:34:06;;;;;;;;;;;;;;;9.52;76.29;99048.22;5020769;28;19920;-78
2021/09/24 00:36:32;;;;;;;;;;;;;;;9.50;76.44;99058.63;5034204;28;19928;-76
2021/09/24 00:38:57;;;;;;;;;;;;;;;9.52;76.35;99056.00;5033090;28;20024;-77
2021/09/24 00:41:23;;;;;;;;;;;;;;;9.53;76.28;99056.84;5065829;28;19921;-76
2021/09/24 00:43:48;;;;;;;;;;;;;;;9.57;76.22;99042.94;5031249;28;19921;-74
2021/09/24 00:46:14;;;;;;;;;;;;;;;9.58;76.28;99048.13;5031025;28;20396;-76
2021/09/24 00:48:39;;;;;;;;;;;;;;;9.57;76.18;99046.41;5029642;28;19975;-76
2021/09/24 00:51:05;;;;;;;;;;;;;;;9.49;76.07;99043.06;5029860;28;19950;-75
2021/09/24 00:53:31;;;;;;;;;;;;;;;9.45;76.32;99047.47;5030327;28;19921;-76
2021/09/24 00:55:57;;;;;;;;;;;;;;;9.45;76.04;99054.38;5052795;28;19991;-77
2021/09/24 00:58:23;;;;;;;;;;;;;;;9.44;76.03;99042.28;5031323;28;19928;-74
2021/09/24 01:00:48;;;;;;;;;;;;;;;9.43;76.02;99040.56;5031128;28;19922;-75
2021/09/24 01:03:14;;;;;;;;;;;;;;;9.43;75.91;99027.59;5029354;28;20300;-76
2021/09/24 01:05:39;;;;;;;;;;;;;;;9.43;76.05;99027.59;5029942;28;20602;-75
2021/09/24 01:08:05;;;;;;;;;;;;;;;9.44;76.00;99031.91;5029296;28;20415;-75
2021/09/24 01:10:31;;;;;;;;;;;;;;;9.47;75.93;99031.84;5032184;28;20621;-76
2021/09/24 01:12:56;;;;;;;;;;;;;;;9.50;76.07;99027.47;5030672;28;19925;-77
2021/09/24 01:15:22;;;;;;;;;;;;;;;9.46;75.65;99018.03;5029247;28;20332;-77
2021/09/24 01:17:48;;;;;;;;;;;;;;;9.50;75.68;99021.41;5036507;28;19964;-76
2021/09/24 01:20:14;;;;;;;;;;;;;;;9.53;75.67;99016.19;5054218;28;19929;-77
2021/09/24 01:22:40;;;;;;;;;;;;;;;9.55;75.54;99017.00;5050718;28;19921;-75
2021/09/24 01:25:07;;;;;;;;;;;;;;;9.58;75.44;99023.88;5035012;28;20040;-77
2021/09/24 01:27:33;;;;;;;;;;;;;;;9.57;75.70;99015.25;5030183;28;19968;-75
2021/09/24 01:29:59;;;;;;;;;;;;;;;9.56;75.49;99016.13;5031002;28;19921;-75
2021/09/24 01:32:25;;;;;;;;;;;;;;;9.54;75.45;99020.50;5029799;28;19959;-76
2021/09/24 01:35:03;;;;;;;;;;;;;;;9.54;75.67;99014.41;5029577;28;19921;-76
2021/09/24 01:37:28;;;;;;;;;;;;;;;9.49;75.27;99011.91;5061932;28;19921;-75
2021/09/24 01:39:54;;;;;;;;;;;;;;;9.49;75.30;99009.31;5029723;28;20355;-77
2021/09/24 01:42:21;;;;;;;;;;;;;;;9.47;75.27;99011.06;5012634;28;19920;-76
2021/09/24 01:44:47;;;;;;;;;;;;;;;9.44;75.12;98999.00;5030379;28;19920;-78
2021/09/24 01:47:12;;;;;;;;;;;;;;;9.46;75.51;99004.16;5028195;28;20427;-77
2021/09/24 01:49:38;;;;;;;;;;;;;;;9.45;75.44;98997.25;5030010;28;19921;-76
2021/09/24 01:52:04;;;;;;;;;;;;;;;9.43;75.17;99002.50;5029621;28;19928;-75
2021/09/24 01:54:29;;;;;;;;;;;;;;;9.44;75.21;99000.75;5061283;28;19931;-76
2021/09/24 01:56:55;;;;;;;;;;;;;;;9.45;75.29;98997.25;5061961;28;19940;-77
2021/09/24 01:59:20;;;;;;;;;;;;;;;9.42;74.82;98993.00;5029560;28;19921;-77
2021/09/24 02:01:46;;;;;;;;;;;;;;;9.45;75.32;98989.47;5045087;28;20304;-76
2021/09/24 02:04:12;;;;;;;;;;;;;;;9.44;75.00;98993.81;5028446;28;19921;-76
2021/09/24 02:06:38;;;;;;;;;;;;;;;9.47;74.95;98985.09;5028015;28;19940;-76
2021/09/24 02:09:03;;;;;;;;;;;;;;;9.47;75.37;98988.56;5029825;28;19939;-77
2021/09/24 02:11:29;;;;;;;;;;;;;;;9.39;74.91;98989.56;5028660;28;20513;-76
2021/09/24 02:13:54;;;;;;;;;;;;;;;9.29;74.80;98984.53;5028978;28;19964;-77
2021/09/24 02:16:20;;;;;;;;;;;;;;;9.24;75.08;98980.31;5028418;28;19921;-75
2021/09/24 02:18:45;;;;;;;;;;;;;;;9.16;74.91;98977.81;5029623;28;20438;-77
2021/09/24 02:21:11;;;;;;;;;;;;;;;9.13;74.85;98970.94;5028130;28;20403;-77
2021/09/24 02:23:37;;;;;;;;;;;;;;;9.12;74.84;98976.19;5028364;28;19928;-76
2021/09/24 02:26:03;;;;;;;;;;;;;;;9.11;75.49;98964.94;5027706;28;19936;-75
2021/09/24 02:28:29;;;;;;;;;;;;;;;9.10;74.96;98972.75;5061976;28;20348;-76
2021/09/24 02:30:55;;;;;;;;;;;;;;;9.06;75.03;98968.47;5030020;28;19928;-75
2021/09/24 02:33:20;;;;;;;;;;;;;;;8.90;74.56;98971.31;5061708;28;20031;-76
2021/09/24 02:35:46;;;;;;;;;;;;;;;8.72;74.92;98978.47;5028829;28;20016;-77
2021/09/24 02:38:11;;;;;;;;;;;;;;;8.57;74.69;98976.13;5033249;28;19957;-78
2021/09/24 02:40:37;;;;;;;;;;;;;;;8.46;75.28;98975.38;5035222;28;19921;-76
2021/09/24 02:43:03;;;;;;;;;;;;;;;8.36;75.30;98978.09;5029722;28;19928;-77
2021/09/24 02:45:28;;;;;;;;;;;;;;;8.25;75.14;98977.38;5029497;28;19979;-75
2021/09/24 02:47:54;;;;;;;;;;;;;;;8.18;75.29;98976.56;5028440;28;19928;-77
2021/09/24 02:50:19;;;;;;;;;;;;;;;8.12;75.59;98980.09;5029567;28;19921;-77
2021/09/24 02:52:45;;;;;;;;;;;;;;;8.05;75.42;98982.78;5029837;28;20316;-75
2021/09/24 02:55:11;;;;;;;;;;;;;;;7.98;75.52;98980.25;5027700;28;19920;-76
2021/09/24 02:57:36;;;;;;;;;;;;;;;7.89;75.38;98979.50;5029144;28;20016;-75
2021/09/24 03:00:04;;;;;;;;;;;;;;;7.82;75.61;98981.31;5029623;28;19921;-77
2021/09/24 03:02:30;;;;;;;;;;;;;;;7.73;75.49;98973.63;5031457;28;19928;-76
2021/09/24 03:04:56;;;;;;;;;;;;;;;7.69;75.57;98972.81;5018308;28;19921;-74
2021/09/24 03:07:22;;;;;;;;;;;;;;;7.65;75.72;98973.72;5046189;28;19940;-76
2021/09/24 03:09:48;;;;;;;;;;;;;;;7.58;75.50;98970.34;5046227;28;20371;-75
2021/09/24 03:12:13;;;;;;;;;;;;;;;7.51;75.80;98984.19;5029491;28;19975;-75
2021/09/24 03:14:39;;;;;;;;;;;;;;;7.45;76.01;98984.28;5028221;28;19928;-78
2021/09/24 03:17:05;;;;;;;;;;;;;;;7.42;75.94;98992.91;5044827;28;19928;-74
2021/09/24 03:19:30;;;;;;;;;;;;;;;7.37;75.99;98981.75;5030604;28;20442;-76
2021/09/24 03:21:56;;;;;;;;;;;;;;;7.33;76.18;98980.06;5045845;28;19921;-74
2021/09/24 03:24:21;;;;;;;;;;;;;;;7.30;76.03;98974.91;5070090;28;19920;-75
2021/09/24 03:26:47;;;;;;;;;;;;;;;7.20;76.21;98972.38;5040360;28;19925;-75
2021/09/24 03:29:13;;;;;;;;;;;;;;;7.16;76.06;98972.44;5047466;28;19921;-76
2021/09/24 03:31:39;;;;;;;;;;;;;;;7.16;76.27;98972.44;5084421;28;20462;-77
2021/09/24 03:34:05;;;;;;;;;;;;;;;7.19;76.39;98980.19;5048905;28;19921;-78
2021/09/24 03:36:32;;;;;;;;;;;;;;;7.17;76.57;98982.75;5020149;28;19965;-78
2021/09/24 03:38:57;;;;;;;;;;;;;;;7.19;76.20;98986.19;5038594;28;20019;-77
2021/09/24 03:41:23;;;;;;;;;;;;;;;7.20;76.40;98987.91;5035530;28;19959;-76
2021/09/24 03:43:49;;;;;;;;;;;;;;;7.21;76.80;98979.28;5017613;28;20473;-77
2021/09/24 03:46:14;;;;;;;;;;;;;;;7.27;76.56;98982.69;5032387;28;19924;-78
2021/09/24 03:48:40;;;;;;;;;;;;;;;7.29;76.44;98973.19;5032496;28;20414;-77
2021/09/24 03:51:05;;;;;;;;;;;;;;;7.35;76.64;98978.31;5031781;28;19932;-76
2021/09/24 03:53:31;;;;;;;;;;;;;;;7.40;76.46;98976.53;5031575;28;20414;-76
2021/09/24 03:55:57;;;;;;;;;;;;;;;7.54;76.96;98985.03;5014872;28;19921;-75
2021/09/24 03:58:23;;;;;;;;;;;;;;;7.71;76.63;98978.00;5048678;28;19921;-76
2021/09/24 04:00:49;;;;;;;;;;;;;;;7.75;76.58;98980.53;5065508;28;20498;-77
2021/09/24 04:03:15;;;;;;;;;;;;;;;7.79;76.56;98978.75;5039489;28;19947;-75
2021/09/24 04:05:41;;;;;;;;;;;;;;;7.83;76.37;98973.50;5033669;28;19967;-76
2021/09/24 04:08:06;;;;;;;;;;;;;;;7.97;76.55;98975.09;5035145;28;19928;-76
2021/09/24 04:10:32;;;;;;;;;;;;;;;8.10;76.49;98966.31;5036086;28;19921;-77
2021/09/24 04:12:57;;;;;;;;;;;;;;;8.14;76.21;98959.38;5070776;28;20012;-78
2021/09/24 04:15:23;;;;;;;;;;;;;;;8.15;76.28;98961.09;5048680;28;19920;-75
2021/09/24 04:17:49;;;;;;;;;;;;;;;8.18;76.34;98962.78;5063603;28;19920;-75
2021/09/24 04:20:14;;;;;;;;;;;;;;;8.27;75.92;98963.50;5031019;28;19925;-74
2021/09/24 04:22:40;;;;;;;;;;;;;;;8.23;75.69;98961.00;5032411;28;19921;-76
2021/09/24 04:25:06;;;;;;;;;;;;;;;8.23;75.92;98955.81;5031664;28;19925;-76
2021/09/24 04:27:31;;;;;;;;;;;;;;;8.09;76.20;98923.13;5030199;28;20017;-78
2021/09/24 04:29:57;;;;;;;;;;;;;;;8.35;75.77;98952.19;5029987;28;19967;-76
2021/09/24 04:32:24;;;;;;;;;;;;;;;8.37;75.74;98950.44;5031616;28;19921;-76
2021/09/24 04:34:49;;;;;;;;;;;;;;;8.41;75.93;98949.50;5063628;28;20364;-76
2021/09/24 04:37:15;;;;;;;;;;;;;;;8.39;75.57;98954.72;5033668;28;19928;-74
2021/09/24 04:39:40;;;;;;;;;;;;;;;8.47;75.88;98952.00;5034504;28;19921;-76
2021/09/24 04:42:06;;;;;;;;;;;;;;;8.49;75.64;98952.03;5069610;28;19927;-77
2021/09/24 04:44:32;;;;;;;;;;;;;;;8.54;75.75;98952.81;5037383;28;19921;-76
2021/09/24 04:46:57;;;;;;;;;;;;;;;8.58;75.28;98963.16;5073006;28;19931;-76
2021/09/24 04:49:23;;;;;;;;;;;;;;;8.52;75.32;98960.63;5029632;28;19956;-76
2021/09/24 04:51:49;;;;;;;;;;;;;;;8.53;75.52;98961.47;5031164;28;19944;-75
2021/09/24 04:54:15;;;;;;;;;;;;;;;8.52;75.13;98954.56;5031066;28;20000;-77
2021/09/24 04:56:41;;;;;;;;;;;;;;;8.56;75.31;98951.06;5029424;28;19921;-76
2021/09/24 04:59:06;;;;;;;;;;;;;;;8.54;75.14;98956.28;5030917;28;19921;-75
2021/09/24 05:01:32;;;;;;;;;;;;;;;8.68;75.31;98956.09;5046126;28;19921;-78
2021/09/24 05:03:58;;;;;;;;;;;;;;;8.86;75.14;98960.13;5030990;28;19921;-75
2021/09/24 05:06:23;;;;;;;;;;;;;;;8.96;75.33;98953.06;5030793;28;19929;-75
2021/09/24 05:08:49;;;;;;;;;;;;;;;9.09;75.18;98945.94;5030718;28;19928;-76
2021/09/24 05:11:14;;;;;;;;;;;;;;;9.11;74.60;98953.72;5029265;28;19928;-76
2021/09/24 05:13:40;;;;;;;;;;;;;;;9.14;74.59;98951.91;5012950;28;19948;-77
2021/09/24 05:16:05;;;;;;;;;;;;;;;9.19;74.97;98944.03;5029472;28;20378;-76
2021/09/24 05:18:31;;;;;;;;;;;;;;;9.26;73.82;98944.81;5029353;28;19920;-76
2021/09/24 05:20:56;;;;;;;;;;;;;;;9.28;74.03;98945.59;5029067;28;19921;-77
2021/09/24 05:23:22;;;;;;;;;;;;;;;9.21;74.04;98936.25;5030139;28;19921;-77
2021/09/24 05:25:48;;;;;;;;;;;;;;;9.21;74.38;98942.28;5029589;28;19975;-76
2021/09/24 05:28:13;;;;;;;;;;;;;;;9.27;74.22;98931.78;5062889;28;20308;-75
2021/09/24 05:30:39;;;;;;;;;;;;;;;9.33;74.11;98934.28;5014205;28;19927;-76
2021/09/24 05:33:04;;;;;;;;;;;;;;;9.42;73.54;98929.78;5035604;28;19905;-75
2021/09/24 05:35:30;;;;;;;;;;;;;;;9.47;73.75;98922.78;5078266;28;19921;-77
2021/09/24 05:37:55;;;;;;;;;;;;;;;9.57;73.93;98923.47;5038366;28;19921;-76
2021/09/24 05:40:22;;;;;;;;;;;;;;;9.69;73.41;98930.19;5031259;28;19928;-76
2021/09/24 05:42:48;;;;;;;;;;;;;;;9.88;73.74;98923.72;5032853;28;19921;-76
2021/09/24 05:45:14;;;;;;;;;;;;;;;10.00;73.17;98922.63;5032812;28;20355;-75
2021/09/24 05:47:40;;;;;;;;;;;;;;;10.00;72.67;98924.38;5031223;28;19973;-75
2021/09/24 05:50:11;;;;;;;;;;;;;;;9.86;72.06;98928.09;5065541;28;19975;-76
2021/09/24 05:52:40;;;;;;;;;;;;;;;9.79;72.10;98923.94;5031337;28;20034;-77
2021/09/24 05:55:06;;;;;;;;;;;;;;;9.83;72.67;98922.94;5030887;28;19921;-76
2021/09/24 05:57:32;;;;;;;;;;;;;;;9.88;72.13;98915.09;5031555;28;19921;-79
2021/09/24 05:59:57;;;;;;;;;;;;;;;9.87;71.68;98915.97;5029858;28;19928;-78
2021/09/24 06:02:23;;;;;;;;;;;;;;;9.82;71.45;98918.66;5038412;28;19921;-76
2021/09/24 06:04:48;;;;;;;;;;;;;;;9.94;72.50;98914.94;5037252;28;19921;-77
2021/09/24 06:07:13;;;;;;;;;;;;;;;10.10;72.17;98905.09;5048505;28;19926;-76
2021/09/24 06:09:39;;;;;;;;;;;;;;;10.22;71.27;98914.38;5064415;28;19932;-76
2021/09/24 06:12:05;;;;;;;;;;;;;;;10.15;71.22;98908.47;5061982;28;19932;-77
2021/09/24 06:14:30;;;;;;;;;;;;;;;10.12;70.82;98911.13;5029204;28;19961;-76
2021/09/24 06:16:56;;;;;;;;;;;;;;;10.08;70.92;98901.66;5029399;28;19921;-75
2021/09/24 06:19:21;;;;;;;;;;;;;;;10.13;70.95;98896.38;5044702;28;20020;-77
2021/09/24 06:21:47;;;;;;;;;;;;;;;10.19;70.33;98901.44;5029533;28;19985;-76
2021/09/24 06:24:16;;;;;;;;;;;;;;;10.14;69.93;98896.34;5028461;28;19932;-76
2021/09/24 06:26:41;;;;;;;;;;;;;;;10.16;70.12;98896.28;5028730;28;19925;-78
2021/09/24 06:29:10;;;;;;;;;;;;;;;10.22;70.43;98899.66;5028263;28;19921;-78
2021/09/24 06:31:36;;;;;;;;;;;;;;;10.35;70.18;98902.84;5029697;28;19932;-78
2021/09/24 06:34:01;;;;;;;;;;;;;;;10.52;69.58;98894.66;5029956;28;19921;-76
2021/09/24 06:36:28;;;;;;;;;;;;;;;10.97;69.38;98890.13;5029572;28;19960;-75
2021/09/24 06:38:53;;;;;;;;;;;;;;;11.38;68.11;98893.41;5044761;28;19928;-77
2021/09/24 06:41:19;;;;;;;;;;;;;;;11.61;68.56;98894.53;5044581;28;19921;-76
2021/09/24 06:43:44;;;;;;;;;;;;;;;11.71;68.47;98897.75;5028511;28;20083;-76
2021/09/24 06:46:10;;;;;;;;;;;;;;;11.77;67.83;98883.72;5028993;28;19932;-77
2021/09/24 06:48:36;;;;;;;;;;;;;;;12.04;66.87;98888.13;5045981;28;20007;-76
2021/09/24 06:51:02;;;;;;;;;;;;;;;13.09;66.96;98885.75;5012716;28;20269;-76
2021/09/24 06:53:28;;;;;;;;;;;;;;;13.55;65.60;98873.75;5045831;28;20445;-77
2021/09/24 06:55:57;;;;;;;;;;;;;;;13.76;65.62;98866.03;5062530;28;20003;-77
2021/09/24 06:58:23;;;;;;;;;;;;;;;13.43;64.21;98878.56;5028758;28;19928;-78
2021/09/24 07:00:49;;;;;;;;;;;;;;;13.05;63.42;98885.00;5012819;28;19920;-78
2021/09/24 07:03:14;;;;;;;;;;;;;;;12.68;63.72;98872.31;5029728;28;19967;-76
2021/09/24 07:05:43;;;;;;;;;;;;;;;12.48;63.76;98881.63;5047456;28;19921;-78
2021/09/24 07:08:14;;;;;;;;;;;;;;;12.40;63.80;98879.25;5034599;28;19947;-76
2021/09/24 07:10:44;;;;;;;;;;;;;;;12.26;63.15;98882.28;5065636;28;20384;-79
2021/09/24 07:13:13;;;;;;;;;;;;;;;12.08;64.03;98885.44;5017900;28;19925;-79
2021/09/24 07:15:48;;;;;;;;;;;;;;;11.83;63.60;98871.34;5066124;28;19921;-76
2021/09/24 07:18:13;;;;;;;;;;;;;;;11.67;63.87;98873.53;5031552;28;19999;-75
2021/09/24 07:20:59;;;;;;;;;;;;;;;11.51;64.31;98877.47;5034243;28;19925;-76
2021/09/24 07:23:28;;;;;;;;;;;;;;;11.32;63.86;98867.56;5047778;28;19920;-79
2021/09/24 07:26:01;;;;;;;;;;;;;;;11.28;65.28;98866.75;5048524;28;19936;-77
2021/09/24 07:28:26;;;;;;;;;;;;;;;11.18;64.34;98869.66;5014832;28;19921;-75
2021/09/24 07:30:55;;;;;;;;;;;;;;;11.03;64.64;98869.16;5031618;28;19921;-76
2021/09/24 07:33:21;;;;;;;;;;;;;;;11.08;64.95;98869.03;5032224;28;19921;-76
2021/09/24 07:35:47;;;;;;;;;;;;;;;10.98;65.00;98873.63;5015810;28;20360;-76
2021/09/24 07:38:13;;;;;;;;;;;;;;;11.00;65.41;98856.22;5065121;28;19921;-78
2021/09/24 07:40:41;;;;;;;;;;;;;;;11.02;64.90;98864.00;5032446;28;20015;-75
2021/09/24 07:43:06;;;;;;;;;;;;;;;10.90;64.84;98854.75;5043744;28;19948;-76
2021/09/24 07:45:32;;;;;;;;;;;;;;;10.84;64.35;98851.41;5080218;28;20041;-77
2021/09/24 07:47:58;;;;;;;;;;;;;;;10.94;65.56;98856.38;5051969;28;19968;-75
2021/09/24 07:50:23;;;;;;;;;;;;;;;11.23;65.82;98854.75;5037271;28;20015;-76
2021/09/24 07:52:49;;;;;;;;;;;;;;;11.51;65.32;98852.25;5040746;28;19986;-76
2021/09/24 07:55:15;;;;;;;;;;;;;;;11.52;64.90;98848.75;5033730;28;19944;-77
2021/09/24 07:57:41;;;;;;;;;;;;;;;11.44;64.47;98862.00;5051047;28;19934;-75
2021/09/24 08:00:07;;;;;;;;;;;;;;;11.52;65.04;98853.13;5033556;28;19925;-78
2021/09/24 08:02:35;;;;;;;;;;;;;;;11.73;64.66;98849.91;5064095;28;19960;-78
2021/09/24 08:05:00;;;;;;;;;;;;;;;11.80;64.21;98845.38;5032290;28;19921;-77
2021/09/24 08:07:28;;;;;;;;;;;;;;;12.04;64.92;98836.00;5031745;28;20071;-78
2021/09/24 08:09:54;;;;;;;;;;;;;;;12.28;65.05;98833.53;5030038;28;19921;-78
2021/09/24 08:12:23;;;;;;;;;;;;;;;12.40;64.32;98836.66;5030878;28;19925;-75
2021/09/24 08:14:48;;;;;;;;;;;;;;;12.42;64.02;98829.66;5030340;28;19921;-79
2021/09/24 08:17:14;;;;;;;;;;;;;;;12.29;63.92;98830.03;5029497;28;20324;-76
2021/09/24 08:19:40;;;;;;;;;;;;;;;12.23;63.71;98840.66;5031223;28;19921;-76
2021/09/24 08:22:07;;;;;;;;;;;;;;;12.17;63.54;98839.06;5014017;28;19921;-77
2021/09/24 08:24:32;;;;;;;;;;;;;;;12.21;63.46;98839.84;5013566;28;19921;-77
2021/09/24 08:27:01;;;;;;;;;;;;;;;12.04;62.79;98838.59;5029969;28;19925;-76
2021/09/24 08:29:27;;;;;;;;;;;;;;;12.08;63.16;98844.59;5014009;28;19975;-77
2021/09/24 08:31:55;;;;;;;;;;;;;;;11.97;63.88;98838.78;5046451;28;19965;-75
2021/09/24 08:34:21;;;;;;;;;;;;;;;11.90;63.83;98838.13;5046772;28;19927;-75
2021/09/24 08:36:49;;;;;;;;;;;;;;;11.76;63.77;98833.31;5031779;28;20388;-78
2021/09/24 08:39:19;;;;;;;;;;;;;;;11.52;63.47;98827.91;5031244;28;19920;-78
2021/09/24 08:41:44;;;;;;;;;;;;;;;11.56;64.67;98829.53;5047845;28;19921;-76
2021/09/24 08:44:12;;;;;;;;;;;;;;;11.63;64.59;98824.16;5033050;28;19921;-77
2021/09/24 08:46:38;;;;;;;;;;;;;;;11.56;64.13;98823.50;5031888;28;19979;-78
2021/09/24 08:49:04;;;;;;;;;;;;;;;11.50;64.69;98821.06;5070502;28;20372;-78
2021/09/24 08:51:34;;;;;;;;;;;;;;;11.53;64.65;98823.56;5054351;28;20371;-76
2021/09/24 08:54:03;;;;;;;;;;;;;;;11.67;65.01;98826.63;5066622;28;19921;-75
2021/09/24 08:56:34;;;;;;;;;;;;;;;11.53;64.48;98813.16;5032891;28;19929;-77
2021/09/24 08:59:02;;;;;;;;;;;;;;;11.53;64.68;98823.56;5032727;28;19928;-75
2021/09/24 09:01:28;;;;;;;;;;;;;;;11.51;64.84;98802.75;5034584;28;20418;-76
2021/09/24 09:03:55;;;;;;;;;;;;;;;11.54;65.19;98810.50;5034343;28;19921;-76
2021/09/24 09:06:21;;;;;;;;;;;;;;;11.48;64.80;98807.22;5031470;28;19985;-80
2021/09/24 09:08:47;;;;;;;;;;;;;;;11.49;64.72;98803.72;5031725;28;20451;-76
2021/09/24 09:11:14;;;;;;;;;;;;;;;11.49;64.28;98785.47;5030299;28;19925;-76
2021/09/24 09:13:41;;;;;;;;;;;;;;;11.60;64.16;98793.81;5029949;28;20435;-76
2021/09/24 09:16:09;;;;;;;;;;;;;;;11.60;64.40;98792.09;5013084;28;19947;-78
2021/09/24 09:18:50;;;;;;;;;;;;;;;12.24;65.66;98787.59;5060659;28;20399;-77
2021/09/24 09:21:21;;;;;;;;;;;;;;;12.60;64.07;98779.47;5030228;28;20020;-77
2021/09/24 09:24:05;;;;;;;;;;;;;;;13.49;63.18;98785.09;5012789;28;19914;-76
2021/09/24 09:26:36;;;;;;;;;;;;;;;13.29;61.02;98788.41;5029506;28;20415;-77
2021/09/24 09:29:08;;;;;;;;;;;;;;;13.08;62.01;98790.03;5062148;28;19920;-78
2021/09/24 09:31:34;;;;;;;;;;;;;;;12.96;62.45;98781.72;5046246;28;19921;-77
2021/09/24 09:34:30;;;;;;;;;;;;;;;13.04;62.15;98775.38;5031458;28;19921;-77
2021/09/24 09:36:56;;;;;;;;;;;;;;;13.00;61.89;98781.59;5020069;28;19932;-76
2021/09/24 09:39:31;;;;;;;;;;;;;;;12.87;61.03;98782.06;5046634;28;19920;-77
2021/09/24 09:41:57;;;;;;;;;;;;;;;12.80;61.01;98781.38;5030095;28;19928;-76
2021/09/24 09:44:26;;;;;;;;;;;;;;;12.57;61.14;98778.72;5030971;28;19921;-76
2021/09/24 09:46:52;;;;;;;;;;;;;;;12.52;61.30;98781.47;5030277;28;19925;-78
2021/09/24 09:49:18;;;;;;;;;;;;;;;12.81;61.64;98780.47;5036521;28;20366;-76
2021/09/24 09:51:45;;;;;;;;;;;;;;;13.45;62.01;98786.13;5048278;28;19979;-74
2021/09/24 09:54:28;;;;;;;;;;;;;;;14.15;60.74;98771.25;5066158;28;19921;-74
2021/09/24 09:57:08;;;;;;;;;;;;;;;14.39;60.09;98765.09;5041172;28;19944;-76
2021/09/24 09:59:34;;;;;;;;;;;;;;;13.99;57.82;98783.25;5033058;28;19976;-76
2021/09/24 10:02:13;;;;;;;;;;;;;;;13.60;58.93;98787.31;5049147;28;19920;-76
2021/09/24 10:04:39;;;;;;;;;;;;;;;13.17;58.27;98786.25;5034717;28;19921;-76
2021/09/24 10:07:15;;;;;;;;;;;;;;;13.01;58.91;98786.78;5066156;28;19925;-76
2021/09/24 10:09:41;;;;;;;;;;;;;;;12.92;58.83;98780.09;5053624;28;19951;-76
2021/09/24 10:12:14;;;;;;;;;;;;;;;13.00;59.71;98789.44;5049770;28;19949;-77
2021/09/24 10:14:39;;;;;;;;;;;;;;;12.89;58.12;98797.66;5051966;28;19921;-77
2021/09/24 10:17:05;;;;;;;;;;;;;;;12.84;58.91;98789.97;5035750;28;19921;-78
2021/09/24 10:19:30;;;;;;;;;;;;;;;12.95;58.65;98782.63;5050547;28;20322;-77
2021/09/24 10:21:59;;;;;;;;;;;;;;;12.93;58.85;98779.22;5069141;28;19925;-77
2021/09/24 10:24:25;;;;;;;;;;;;;;;12.95;58.70;98798.28;5036468;28;19925;-78
2021/09/24 10:27:02;;;;;;;;;;;;;;;12.78;58.47;98784.97;5034950;28;19971;-76
2021/09/24 10:29:32;;;;;;;;;;;;;;;12.76;58.88;98805.03;5068738;28;20012;-78
2021/09/24 10:32:20;;;;;;;;;;;;;;;12.68;58.06;98789.66;5035655;28;19921;-76
2021/09/24 10:35:06;;;;;;;;;;;;;;;12.72;57.73;98782.56;5035613;28;19925;-77
2021/09/24 10:37:33;;;;;;;;;;;;;;;12.74;57.77;98802.50;5047955;28;19917;-76
2021/09/24 10:40:01;;;;;;;;;;;;;;;12.56;57.19;98805.72;5052654;28;19905;-77
2021/09/24 10:42:30;;;;;;;;;;;;;;;12.45;57.48;98780.81;5081442;28;19921;-77
2021/09/24 10:44:57;;;;;;;;;;;;;;;12.35;57.00;98790.72;5047953;28;20345;-75
2021/09/24 10:48:01;;;;;;;;;;;;;;;12.31;57.57;98796.91;5033512;28;19925;-77
2021/09/24 10:53:26;;;;;;;;;;;;;;;12.39;57.20;98793.22;5012861;28;19922;-78
2021/09/24 10:55:54;;;;;;;;;;;;;;;12.22;57.31;98794.63;5005363;28;20289;-79
2021/09/24 10:58:23;;;;;;;;;;;;;;;12.07;57.50;98787.25;5032331;28;19921;-79
2021/09/24 11:00:50;;;;;;;;;;;;;;;12.09;57.52;98783.72;5015610;28;19921;-79
2021/09/24 11:03:25;;;;;;;;;;;;;;;12.20;57.72;98781.59;5032204;28;19925;-78
2021/09/24 11:06:10;;;;;;;;;;;;;;;12.10;57.78;98777.59;5032996;28;19944;-79
2021/09/24 11:08:40;;;;;;;;;;;;;;;12.08;57.57;98794.19;5032983;28;19947;-77
2021/09/24 11:11:13;;;;;;;;;;;;;;;12.18;58.08;98778.19;5032430;28;19955;-77
2021/09/24 11:13:43;;;;;;;;;;;;;;;12.03;57.10;98740.41;5047622;28;19925;-77
2021/09/24 11:16:13;;;;;;;;;;;;;;;12.21;57.84;98777.25;5032170;28;20108;-76
2021/09/24 11:18:48;;;;;;;;;;;;;;;12.22;58.19;98781.59;5033528;28;19921;-78
2021/09/24 11:21:14;;;;;;;;;;;;;;;12.35;57.98;98769.00;5037896;28;19925;-77
2021/09/24 11:23:40;;;;;;;;;;;;;;;12.46;57.15;98782.53;5033423;28;19921;-78
2021/09/24 11:26:06;;;;;;;;;;;;;;;12.52;57.56;98780.63;5038837;28;19956;-76
2021/09/24 11:28:33;;;;;;;;;;;;;;;12.65;58.00;98761.03;5033198;28;19925;-76
2021/09/24 11:30:58;;;;;;;;;;;;;;;12.81;56.72;98772.66;5048978;28;19928;-76
2021/09/24 11:33:43;;;;;;;;;;;;;;;12.78;56.88;98758.84;5035494;28;19925;-78
2021/09/24 11:36:08;;;;;;;;;;;;;;;12.75;56.96;98764.19;5048541;28;20031;-76
2021/09/24 11:38:34;;;;;;;;;;;;;;;12.81;56.89;98777.88;5050617;28;19905;-75
2021/09/24 11:41:00;;;;;;;;;;;;;;;12.87;56.82;98773.34;5045073;28;20292;-77
2021/09/24 11:43:36;;;;;;;;;;;;;;;12.85;56.14;98794.31;5052126;28;20494;-76
2021/09/24 11:46:12;;;;;;;;;;;;;;;12.74;56.86;98781.63;5050701;28;19961;-79
2021/09/24 11:48:38;;;;;;;;;;;;;;;12.73;56.64;98779.91;5032947;28;19928;-76
2021/09/24 11:51:24;;;;;;;;;;;;;;;12.77;56.94;98760.63;5014611;28;19921;-76
2021/09/24 11:53:58;;;;;;;;;;;;;;;12.82;56.60;98757.84;5035057;28;19943;-77
2021/09/24 11:56:37;;;;;;;;;;;;;;;12.67;56.64;98768.84;5020083;28;19921;-77
2021/09/24 11:59:06;;;;;;;;;;;;;;;12.48;56.64;98759.84;5077391;28;19995;-78
2021/09/24 12:01:36;;;;;;;;;;;;;;;12.50;56.98;98760.66;5030035;28;19921;-76
2021/09/24 12:04:03;;;;;;;;;;;;;;;12.68;56.41;98760.09;5075194;28;19967;-76
2021/09/24 12:06:34;;;;;;;;;;;;;;;12.60;56.12;98765.56;5033452;28;19929;-76
2021/09/24 12:09:08;;;;;;;;;;;;;;;12.62;56.25;98767.22;5049001;28;19921;-75
2021/09/24 12:11:45;;;;;;;;;;;;;;;12.50;56.37;98760.66;5031907;28;19972;-75
2021/09/24 12:14:12;;;;;;;;;;;;;;;12.53;56.78;98769.28;5031431;28;20394;-76
2021/09/24 12:16:39;;;;;;;;;;;;;;;12.53;56.48;98775.34;5031498;28;19995;-76
2021/09/24 12:19:04;;;;;;;;;;;;;;;12.47;56.70;98759.88;5030778;28;19921;-77
2021/09/24 12:21:33;;;;;;;;;;;;;;;12.42;56.43;98762.66;5030038;28;19931;-79
2021/09/24 12:24:00;;;;;;;;;;;;;;;12.41;56.71;98755.72;5030876;28;19952;-76
2021/09/24 12:26:33;;;;;;;;;;;;;;;12.53;56.73;98754.47;5032191;28;19933;-76
2021/09/24 12:29:03;;;;;;;;;;;;;;;12.57;56.24;98755.25;5048408;28;19968;-77
2021/09/24 12:31:35;;;;;;;;;;;;;;;12.53;56.16;98749.25;5032798;28;19952;-78
2021/09/24 12:34:05;;;;;;;;;;;;;;;12.59;56.56;98740.34;5047818;28;19921;-77
2021/09/24 12:36:30;;;;;;;;;;;;;;;12.65;56.53;98742.75;5031877;28;19921;-77
2021/09/24 12:39:12;;;;;;;;;;;;;;;12.64;55.98;98747.16;5030076;28;20011;-76
2021/09/24 12:41:44;;;;;;;;;;;;;;;12.45;55.70;98746.91;5045997;28;19939;-75
2021/09/24 12:44:11;;;;;;;;;;;;;;;12.37;56.40;98771.53;5063411;28;19925;-76
2021/09/24 12:46:42;;;;;;;;;;;;;;;12.09;56.41;98749.81;5014208;28;20029;-77
2021/09/24 12:49:09;;;;;;;;;;;;;;;12.02;56.25;98766.56;5013423;28;19921;-76
2021/09/24 12:51:36;;;;;;;;;;;;;;;12.02;56.52;98762.22;5046846;28;19928;-78
2021/09/24 12:54:05;;;;;;;;;;;;;;;11.95;56.60;98767.59;5064492;28;19948;-77
2021/09/24 12:56:34;;;;;;;;;;;;;;;11.95;56.73;98754.56;5049989;28;19921;-78